DWD Radarbild

   
[Quelle: ADDS]
METAR
EDLP 270520Z 32005KT 280V030 9999 BKN015 14/11 Q1027 =
EDLP 270500Z 2706/2806 34006KT 9999 SCT020 TEMPO 2706/2708 BKN014 BECMG 2720/2723 VRB03KT TEMPO 2801/2806 BKN012
TAF
EDLP 270500Z 2706/2806 34006KT 9999 SCT020 TEMPO 2706/2708 BKN014 BECMG 2720/2723 VRB03KT TEMPO 2801/2806 BKN012 =
   
   

Meine WettercamWettercam aus Bielefeld Senne - Blickrichtung Süd-Ostjede Min. ein neues Bild

   
Moon phase
Phase:
Abnehmend

Mondphase:
33%

Alter:
24 Tage

Entfernung:
246,892 Km

Zeit:
07:38:02

Datum:
27-06-2019

   
<<  Jun 2019  >>
 Mo  Di  Mi  Do  Fr  Sa  So 
       1  2
  3  4  5  6  7  8  9
10111213141516
17181920212223
24252627282930